Althea — 9HAQ7 — position and weather

sailwx.info

Track history (hours):
 
Tides and Currents Weather Stations Pressure Air Temp Water Temp Dewpoint Dewpoint Depression Visibility Wind Speed Wind Dir Waves Ship Positions

Althea

Last reported at 2016-Dec-21 08:24 UTC. Time now 2017-Jan-25 01:20 UTC.
Position N 40°54' E 028°48'.
Warning: this ship's position is 34 days out of date.

Length 170 m; draft 10.1 m.

Type: Cargo ship. MMSI: 215047000.

Date/timePositionNaut miles runAvg speedWind from/ knotsBaromVisibWave heightAir tempDewpointWater temp
2016-Dec-21 08:24N 40°54' E 028°48'5 1.2
2016-Dec-21 04:13N 40°57' E 028°53'0 0.2
2016-Dec-21 03:24N 40°57' E 028°54'315 7.7
2016-Dec-19 10:31N 45°58' E 031°01'2511.8
2016-Dec-19 08:24N 46°23' E 030°55'17 8.7
2016-Dec-19 06:28N 46°35' E 031°12'  
2016-Dec-15 12:26N 46°37' E 031°52'7 8.3
2016-Dec-15 11:33N 46°45' E 031°54'9 8.7
2016-Dec-15 10:33N 46°53' E 031°59'4 4.4
2016-Dec-15 09:33N 46°57' E 032°00'0 0.0
2016-Dec-15 08:31N 46°57' E 032°00'0 0.0
2016-Dec-15 07:31N 46°57' E 032°00'0 0.0
2016-Dec-15 06:19N 46°57' E 032°00'0 0.0
2016-Dec-15 05:31N 46°57' E 032°00'0 0.0
2016-Dec-15 04:31N 46°57' E 032°00'0 0.0
2016-Dec-15 03:19N 46°57' E 032°00'0 0.0
2016-Dec-15 02:31N 46°57' E 032°00'0 0.0
2016-Dec-15 01:25N 46°57' E 032°00'0 0.0
2016-Dec-15 00:25N 46°57' E 032°00'0 0.0
2016-Dec-14 23:25N 46°57' E 032°00'0 0.0
2016-Dec-14 22:31N 46°57' E 032°00'0 0.0
2016-Dec-14 21:31N 46°57' E 032°00'0 0.0
2016-Dec-14 20:22N 46°57' E 032°00'0 0.0
2016-Dec-14 19:31N 46°57' E 032°00'0 0.0
2016-Dec-14 11:04N 46°57' E 032°00'0 0.0
2016-Dec-14 10:31N 46°57' E 032°00'0 0.0
2016-Dec-14 09:16N 46°57' E 032°00'0 0.0
2016-Dec-14 07:16N 46°57' E 032°00'0 0.0
2016-Dec-14 06:31N 46°57' E 032°00'0 0.0
2016-Dec-14 04:22N 46°57' E 032°00'0 0.0
2016-Dec-14 00:19N 46°57' E 032°00'0 0.0
2016-Dec-13 22:19N 46°57' E 032°00'0 0.0
2016-Dec-13 17:25N 46°57' E 032°00'0 0.0
2016-Dec-13 16:31N 46°57' E 032°00'0 0.0
2016-Dec-13 12:28N 46°57' E 032°00'0 0.0
2016-Dec-13 10:19N 46°57' E 032°00'0 0.0
2016-Dec-13 09:07N 46°57' E 032°00'0 0.0
2016-Dec-13 08:31N 46°57' E 032°00'0 0.0
2016-Dec-13 07:19N 46°57' E 032°00'0 0.0
2016-Dec-13 05:22N 46°57' E 032°00'0 0.0
2016-Dec-13 04:19N 46°57' E 032°00'0 0.0
2016-Dec-13 03:28N 46°57' E 032°00'0 0.0
2016-Dec-13 02:31N 46°57' E 032°00'0 0.0
2016-Dec-13 00:28N 46°57' E 032°00'0 0.0
2016-Dec-12 23:31N 46°57' E 032°00'0 0.0
2016-Dec-12 22:28N 46°57' E 032°00'0 0.0
2016-Dec-12 21:31N 46°57' E 032°00'0 0.0
2016-Dec-12 20:25N 46°57' E 032°00'0 0.0
2016-Dec-12 19:13N 46°57' E 032°00'0 0.0
2016-Dec-12 18:28N 46°57' E 032°00'0 0.0
2016-Dec-12 17:16N 46°57' E 032°00'0 0.0
2016-Dec-12 16:22N 46°57' E 032°00'0 0.0
2016-Dec-12 15:28N 46°57' E 032°00'0 0.0
2016-Dec-12 14:16N 46°57' E 032°00'0 0.0
2016-Dec-12 11:31N 46°57' E 032°00'0 0.0
2016-Dec-12 10:22N 46°57' E 032°00'0 0.0
2016-Dec-12 07:28N 46°57' E 032°00'0 0.0
2016-Dec-12 05:10N 46°57' E 032°00'0 0.0
2016-Dec-12 04:31N 46°57' E 032°00'0 0.0
2016-Dec-12 03:31N 46°57' E 032°00'0 0.0
2016-Dec-12 02:25N 46°57' E 032°00'0 0.0
2016-Dec-12 01:31N 46°57' E 032°00'0 0.0
2016-Dec-12 00:31N 46°57' E 032°00'0 0.0
2016-Dec-11 23:28N 46°57' E 032°00'0 0.4
2016-Dec-11 22:33N 46°56' E 032°01'1110.6
2016-Dec-11 21:33N 46°47' E 031°53'1110.9
2016-Dec-11 20:33N 46°36' E 031°50'1312.8
2016-Dec-11 19:30N 46°35' E 031°30'2311.7
2016-Dec-11 17:31N 46°33' E 030°57'9 9.0
2016-Dec-11 16:33N 46°24' E 030°57'  
Track history (hours):
 
Tides and Currents Weather Stations Pressure Air Temp Water Temp Dewpoint Dewpoint Depression Visibility Wind Speed Wind Dir Waves Ship Positions

Althea

Last reported at 2016-Dec-21 08:24 UTC. Time now 2017-Jan-25 01:20 UTC.
Position N 40°54' E 028°48'.
Warning: this ship's position is 34 days out of date.

Length 170 m; draft 10.1 m.

Type: Cargo ship. MMSI: 215047000.

Date/timePositionNaut miles runAvg speedWind from/ knotsBaromVisibWave heightAir tempDewpointWater temp
2016-Dec-21 08:24N 40°54' E 028°48'5 1.2
2016-Dec-21 04:13N 40°57' E 028°53'0 0.2
2016-Dec-21 03:24N 40°57' E 028°54'315 7.7
2016-Dec-19 10:31N 45°58' E 031°01'2511.8
2016-Dec-19 08:24N 46°23' E 030°55'17 8.7
2016-Dec-19 06:28N 46°35' E 031°12'  
2016-Dec-15 12:26N 46°37' E 031°52'7 8.3
2016-Dec-15 11:33N 46°45' E 031°54'9 8.7
2016-Dec-15 10:33N 46°53' E 031°59'4 4.4
2016-Dec-15 09:33N 46°57' E 032°00'0 0.0
2016-Dec-15 08:31N 46°57' E 032°00'0 0.0
2016-Dec-15 07:31N 46°57' E 032°00'0 0.0
2016-Dec-15 06:19N 46°57' E 032°00'0 0.0
2016-Dec-15 05:31N 46°57' E 032°00'0 0.0
2016-Dec-15 04:31N 46°57' E 032°00'0 0.0
2016-Dec-15 03:19N 46°57' E 032°00'0 0.0
2016-Dec-15 02:31N 46°57' E 032°00'0 0.0
2016-Dec-15 01:25N 46°57' E 032°00'0 0.0
2016-Dec-15 00:25N 46°57' E 032°00'0 0.0
2016-Dec-14 23:25N 46°57' E 032°00'0 0.0
2016-Dec-14 22:31N 46°57' E 032°00'0 0.0
2016-Dec-14 21:31N 46°57' E 032°00'0 0.0
2016-Dec-14 20:22N 46°57' E 032°00'0 0.0
2016-Dec-14 19:31N 46°57' E 032°00'0 0.0
2016-Dec-14 11:04N 46°57' E 032°00'0 0.0
2016-Dec-14 10:31N 46°57' E 032°00'0 0.0
2016-Dec-14 09:16N 46°57' E 032°00'0 0.0
2016-Dec-14 07:16N 46°57' E 032°00'0 0.0
2016-Dec-14 06:31N 46°57' E 032°00'0 0.0
2016-Dec-14 04:22N 46°57' E 032°00'0 0.0
2016-Dec-14 00:19N 46°57' E 032°00'0 0.0
2016-Dec-13 22:19N 46°57' E 032°00'0 0.0
2016-Dec-13 17:25N 46°57' E 032°00'0 0.0
2016-Dec-13 16:31N 46°57' E 032°00'0 0.0
2016-Dec-13 12:28N 46°57' E 032°00'0 0.0
2016-Dec-13 10:19N 46°57' E 032°00'0 0.0
2016-Dec-13 09:07N 46°57' E 032°00'0 0.0
2016-Dec-13 08:31N 46°57' E 032°00'0 0.0
2016-Dec-13 07:19N 46°57' E 032°00'0 0.0
2016-Dec-13 05:22N 46°57' E 032°00'0 0.0
2016-Dec-13 04:19N 46°57' E 032°00'0 0.0
2016-Dec-13 03:28N 46°57' E 032°00'0 0.0
2016-Dec-13 02:31N 46°57' E 032°00'0 0.0
2016-Dec-13 00:28N 46°57' E 032°00'0 0.0
2016-Dec-12 23:31N 46°57' E 032°00'0 0.0
2016-Dec-12 22:28N 46°57' E 032°00'0 0.0
2016-Dec-12 21:31N 46°57' E 032°00'0 0.0
2016-Dec-12 20:25N 46°57' E 032°00'0 0.0
2016-Dec-12 19:13N 46°57' E 032°00'0 0.0
2016-Dec-12 18:28N 46°57' E 032°00'0 0.0
2016-Dec-12 17:16N 46°57' E 032°00'0 0.0
2016-Dec-12 16:22N 46°57' E 032°00'0 0.0
2016-Dec-12 15:28N 46°57' E 032°00'0 0.0
2016-Dec-12 14:16N 46°57' E 032°00'0 0.0
2016-Dec-12 11:31N 46°57' E 032°00'0 0.0
2016-Dec-12 10:22N 46°57' E 032°00'0 0.0
2016-Dec-12 07:28N 46°57' E 032°00'0 0.0
2016-Dec-12 05:10N 46°57' E 032°00'0 0.0
2016-Dec-12 04:31N 46°57' E 032°00'0 0.0
2016-Dec-12 03:31N 46°57' E 032°00'0 0.0
2016-Dec-12 02:25N 46°57' E 032°00'0 0.0
2016-Dec-12 01:31N 46°57' E 032°00'0 0.0
2016-Dec-12 00:31N 46°57' E 032°00'0 0.0
2016-Dec-11 23:28N 46°57' E 032°00'0 0.4
2016-Dec-11 22:33N 46°56' E 032°01'1110.6
2016-Dec-11 21:33N 46°47' E 031°53'1110.9
2016-Dec-11 20:33N 46°36' E 031°50'1312.8
2016-Dec-11 19:30N 46°35' E 031°30'2311.7
2016-Dec-11 17:31N 46°33' E 030°57'9 9.0
2016-Dec-11 16:33N 46°24' E 030°57'  

Dump ship's entire track history